createdAt,value
2023-05-17T00:01:46.193Z,1.02
2023-05-17T00:04:16.292Z,1.50
2023-05-17T00:06:44.089Z,1.85
2023-05-17T00:09:11.789Z,1.40
2023-05-17T00:11:38.641Z,1.33
2023-05-17T00:14:06.145Z,1.40
2023-05-17T00:16:33.262Z,1.52
2023-05-17T00:19:00.370Z,1.50
2023-05-17T00:21:28.089Z,1.27
2023-05-17T00:23:54.951Z,1.38
2023-05-17T00:26:22.069Z,1.50
2023-05-17T00:28:51.666Z,1.60
2023-05-17T00:31:18.507Z,1.63
2023-05-17T00:33:46.500Z,1.38
2023-05-17T00:36:13.504Z,1.60
2023-05-17T00:38:40.371Z,1.77
2023-05-17T00:41:07.257Z,1.48
2023-05-17T00:43:34.137Z,1.67
2023-05-17T00:46:01.104Z,1.30
2023-05-17T00:48:29.771Z,1.55
2023-05-17T00:50:58.462Z,1.65
2023-05-17T00:53:26.177Z,1.10
2023-05-17T00:55:55.432Z,1.58
2023-05-17T00:58:23.398Z,1.20
2023-05-17T01:00:51.608Z,1.38
2023-05-17T01:03:18.539Z,1.52
2023-05-17T01:05:45.667Z,1.20
2023-05-17T01:08:12.466Z,1.63
2023-05-17T01:11:05.020Z,1.67
2023-05-17T01:13:45.979Z,1.42
2023-05-17T01:16:42.477Z,1.83
2023-05-17T01:19:28.921Z,1.50
2023-05-17T01:22:20.927Z,1.40
2023-05-17T01:25:04.621Z,1.63
2023-05-17T01:27:33.147Z,1.58
2023-05-17T01:30:02.369Z,1.45
2023-05-17T01:32:30.892Z,1.20
2023-05-17T01:34:57.772Z,1.83
2023-05-17T01:37:24.696Z,1.42
2023-05-17T01:39:51.541Z,1.25
2023-05-17T01:42:33.213Z,1.45
2023-05-17T01:45:02.998Z,1.70
2023-05-17T01:47:50.079Z,1.50
2023-05-17T01:50:22.436Z,1.65
2023-05-17T01:52:56.000Z,1.40
2023-05-17T01:55:43.954Z,1.73
2023-05-17T01:58:13.033Z,1.27
2023-05-17T02:00:43.823Z,1.73
2023-05-17T02:03:18.508Z,1.90
2023-05-17T02:08:12.817Z,1.60
2023-05-17T02:10:40.132Z,1.80
2023-05-17T02:13:07.079Z,1.60
2023-05-17T02:15:34.007Z,1.50
2023-05-17T02:18:01.154Z,1.60
2023-05-17T02:20:28.080Z,1.58
2023-05-17T02:22:55.348Z,1.70
2023-05-17T02:25:22.237Z,1.90
2023-05-17T02:27:49.072Z,1.65
2023-05-17T02:30:18.094Z,1.70
2023-05-17T02:32:45.450Z,1.80
2023-05-17T02:35:12.464Z,1.85
2023-05-17T02:37:39.928Z,1.73
2023-05-17T02:40:09.739Z,1.90
2023-05-17T02:42:38.131Z,1.60
2023-05-17T02:45:05.851Z,1.63
2023-05-17T02:47:32.884Z,1.67
2023-05-17T02:49:59.807Z,1.80
2023-05-17T02:52:26.639Z,1.85
2023-05-17T02:54:53.515Z,1.50
2023-05-17T02:57:20.450Z,1.92
2023-05-17T02:59:47.367Z,1.42
2023-05-17T03:02:14.285Z,2.00
2023-05-17T03:04:41.323Z,1.90
2023-05-17T03:07:08.524Z,2.35
2023-05-17T03:09:35.823Z,1.80
2023-05-17T03:12:03.381Z,1.80
2023-05-17T03:14:31.036Z,1.67
2023-05-17T03:16:57.839Z,1.60
2023-05-17T03:19:24.941Z,1.60
2023-05-17T03:21:51.993Z,1.90
2023-05-17T03:24:18.918Z,2.00
2023-05-17T03:26:45.760Z,2.00
2023-05-17T03:29:12.597Z,1.50
2023-05-17T03:31:39.436Z,1.88
2023-05-17T03:34:06.320Z,1.88
2023-05-17T03:36:35.400Z,2.03
2023-05-17T03:39:02.327Z,2.08
2023-05-17T03:41:29.427Z,2.22
2023-05-17T03:43:56.238Z,1.90
2023-05-17T03:46:23.367Z,1.95
2023-05-17T03:48:50.321Z,1.55
2023-05-17T03:51:17.776Z,1.95
2023-05-17T03:53:44.834Z,2.10
2023-05-17T03:56:12.013Z,1.70
2023-05-17T03:58:38.904Z,2.17
2023-05-17T04:01:05.758Z,2.10
2023-05-17T04:03:32.866Z,2.20
2023-05-17T04:06:07.209Z,2.20
2023-05-17T04:08:35.670Z,1.85
2023-05-17T04:11:10.620Z,2.25
2023-05-17T04:13:37.963Z,2.03
2023-05-17T04:16:05.464Z,2.30
2023-05-17T04:18:36.222Z,2.60
2023-05-17T04:21:03.681Z,2.35
2023-05-17T04:23:32.196Z,2.10
2023-05-17T04:25:59.100Z,1.85
2023-05-17T04:28:26.181Z,2.30
2023-05-17T04:30:53.094Z,2.03
2023-05-17T04:33:20.115Z,2.05
2023-05-17T04:35:47.092Z,2.25
2023-05-17T04:38:14.324Z,2.17
2023-05-17T04:40:41.254Z,2.88
2023-05-17T04:43:08.835Z,2.25
2023-05-17T04:45:35.810Z,2.55
2023-05-17T04:48:02.783Z,2.00
2023-05-17T04:50:29.636Z,2.40
2023-05-17T04:52:56.467Z,2.42
2023-05-17T04:55:23.460Z,2.33
2023-05-17T04:57:50.370Z,2.22
2023-05-17T05:00:18.714Z,2.17
2023-05-17T05:02:46.611Z,2.08
2023-05-17T05:05:13.935Z,2.58
2023-05-17T05:07:40.851Z,2.83
2023-05-17T05:10:08.452Z,3.00
2023-05-17T05:12:35.354Z,2.92
2023-05-17T05:15:02.282Z,2.83
2023-05-17T05:17:31.227Z,2.35
2023-05-17T05:19:58.391Z,2.53
2023-05-17T05:22:26.102Z,2.80
2023-05-17T05:24:53.044Z,2.92
2023-05-17T05:27:19.904Z,2.50
2023-05-17T05:29:46.814Z,2.70
2023-05-17T05:32:15.326Z,2.22
2023-05-17T05:34:42.234Z,2.58
2023-05-17T05:37:09.091Z,2.53
2023-05-17T05:39:36.140Z,2.38
2023-05-17T05:42:04.278Z,2.45
2023-05-17T05:44:31.693Z,2.78
2023-05-17T05:46:58.907Z,2.65
2023-05-17T05:49:25.749Z,2.70
2023-05-17T05:51:52.700Z,2.78
2023-05-17T05:54:19.710Z,2.60
2023-05-17T05:56:46.707Z,2.13
2023-05-17T05:59:13.519Z,2.47
2023-05-17T06:01:41.592Z,2.60
2023-05-17T06:04:08.460Z,2.40
2023-05-17T06:06:35.896Z,2.78
2023-05-17T06:09:03.932Z,2.60
2023-05-17T06:11:30.847Z,2.70
2023-05-17T06:13:57.653Z,2.63
2023-05-17T06:16:24.555Z,3.00
2023-05-17T06:18:51.679Z,3.35
2023-05-17T06:21:18.768Z,3.33
2023-05-17T06:23:45.730Z,3.25
2023-05-17T06:26:12.639Z,3.25
2023-05-17T06:28:39.736Z,3.13
2023-05-17T06:31:06.603Z,3.35
2023-05-17T06:33:33.724Z,3.60
2023-05-17T06:38:27.650Z,3.17
2023-05-17T06:40:55.985Z,3.33
2023-05-17T06:43:22.941Z,4.00
2023-05-17T06:45:50.095Z,3.28
2023-05-17T06:48:17.213Z,3.20
2023-05-17T06:50:45.210Z,3.15
2023-05-17T06:53:12.157Z,3.30
2023-05-17T06:55:39.219Z,3.83
2023-05-17T06:58:09.230Z,3.33
2023-05-17T07:00:36.939Z,3.05
2023-05-17T07:03:03.961Z,3.63
2023-05-17T07:05:31.181Z,3.30
2023-05-17T07:08:01.534Z,3.30
2023-05-17T07:10:28.450Z,3.17
2023-05-17T07:12:55.493Z,3.25
2023-05-17T07:15:22.433Z,3.08
2023-05-17T07:17:49.393Z,3.08
2023-05-17T07:20:16.536Z,3.33
2023-05-17T07:22:43.515Z,3.55
2023-05-17T07:25:10.730Z,3.55
2023-05-17T07:27:37.651Z,3.30
2023-05-17T07:30:05.319Z,3.22
2023-05-17T07:32:32.294Z,3.03
2023-05-17T07:34:59.253Z,3.17
2023-05-17T07:37:26.104Z,3.90
2023-05-17T07:39:52.969Z,3.53
2023-05-17T07:42:19.799Z,3.90
2023-05-17T07:44:49.649Z,2.78
2023-05-17T07:47:16.751Z,3.60
2023-05-17T07:49:43.733Z,3.35
2023-05-17T07:52:10.534Z,3.65
2023-05-17T07:54:40.085Z,3.50
2023-05-17T07:57:06.921Z,3.05
2023-05-17T07:59:33.790Z,3.40
2023-05-17T08:02:01.291Z,3.80
2023-05-17T08:04:28.184Z,3.58
2023-05-17T08:06:55.744Z,4.57
2023-05-17T08:09:22.654Z,3.60
2023-05-17T08:11:49.615Z,3.38
2023-05-17T08:14:17.476Z,3.70
2023-05-17T08:16:47.029Z,3.97
2023-05-17T08:19:15.846Z,3.88
2023-05-17T08:21:43.749Z,3.90
2023-05-17T08:24:11.602Z,3.70
2023-05-17T08:26:38.835Z,3.17
2023-05-17T08:29:05.829Z,2.80
2023-05-17T08:31:33.178Z,2.90
2023-05-17T08:34:02.067Z,3.78
2023-05-17T08:36:28.947Z,3.65
2023-05-17T08:38:56.033Z,3.03
2023-05-17T08:41:22.983Z,3.03
2023-05-17T08:43:50.990Z,3.17
2023-05-17T08:46:21.629Z,2.67
2023-05-17T08:48:52.686Z,2.85
2023-05-17T08:51:23.332Z,3.10
2023-05-17T08:53:50.736Z,3.22
2023-05-17T08:56:20.347Z,3.13
2023-05-17T08:58:57.888Z,7.22
2023-05-17T09:01:27.175Z,3.05
2023-05-17T09:03:55.145Z,3.17
2023-05-17T09:06:23.497Z,3.13
2023-05-17T09:08:55.072Z,2.63
2023-05-17T09:11:33.043Z,2.58
2023-05-17T09:14:06.360Z,2.60
2023-05-17T09:16:36.276Z,2.47
2023-05-17T09:19:06.153Z,2.65
2023-05-17T09:53:42.270Z,2.95
2023-05-17T09:56:10.842Z,3.00
2023-05-17T09:58:38.183Z,3.10
2023-05-17T10:01:07.508Z,3.38
2023-05-17T10:03:37.000Z,3.30
2023-05-17T10:06:08.764Z,3.35
2023-05-17T10:08:38.579Z,3.22
2023-05-17T10:11:09.918Z,2.92
2023-05-17T10:13:55.905Z,3.38
2023-05-17T10:16:23.875Z,3.60
2023-05-17T10:18:51.216Z,3.05
2023-05-17T10:21:18.588Z,3.53
2023-05-17T10:23:47.962Z,4.00
2023-05-17T10:26:16.161Z,3.00
2023-05-17T10:28:44.395Z,3.67
2023-05-17T10:31:12.652Z,3.40
2023-05-17T10:33:40.333Z,3.40
2023-05-17T10:36:08.257Z,3.92
2023-05-17T10:38:41.761Z,3.72
2023-05-17T10:41:13.161Z,3.50
2023-05-17T10:43:42.703Z,3.85
2023-05-17T10:46:16.628Z,3.97
2023-05-17T10:48:44.636Z,3.30
2023-05-17T10:51:12.064Z,3.40
2023-05-17T10:54:11.922Z,3.63
2023-05-17T10:56:49.554Z,3.42
2023-05-17T10:59:26.823Z,3.35
2023-05-17T11:02:09.037Z,3.80
2023-05-17T11:04:45.493Z,3.40
2023-05-17T11:07:27.927Z,3.20
2023-05-17T11:10:05.972Z,3.50
2023-05-17T11:12:40.278Z,3.67
2023-05-17T11:15:16.827Z,3.70
2023-05-17T11:17:43.993Z,3.50
2023-05-17T11:20:32.960Z,3.58
2023-05-17T11:23:16.418Z,3.28
2023-05-17T11:25:44.224Z,3.53
2023-05-17T11:28:22.390Z,3.50
2023-05-17T11:30:53.621Z,3.28
2023-05-17T11:33:36.836Z,3.40
2023-05-17T11:36:21.544Z,3.45
2023-05-17T11:38:55.211Z,3.13
2023-05-17T11:41:29.238Z,3.08
2023-05-17T11:43:56.043Z,2.85
2023-05-17T11:46:24.664Z,2.72
2023-05-17T11:48:52.951Z,2.65
2023-05-17T11:51:22.818Z,3.45
2023-05-17T11:53:55.433Z,3.42
2023-05-17T11:56:35.619Z,3.40
2023-05-17T11:59:10.283Z,3.33
2023-05-17T12:01:49.070Z,3.10
2023-05-17T12:04:25.959Z,3.08
2023-05-17T12:06:54.651Z,2.90
2023-05-17T12:09:23.251Z,2.92
2023-05-17T12:11:50.391Z,3.13
2023-05-17T12:14:18.468Z,2.45
2023-05-17T12:16:52.970Z,3.10
2023-05-17T12:19:22.555Z,3.28
2023-05-17T12:21:50.630Z,2.92
2023-05-17T12:24:18.127Z,3.20
2023-05-17T12:26:47.756Z,2.72
2023-05-17T12:29:19.289Z,3.25
2023-05-17T12:31:50.960Z,3.17
2023-05-17T12:34:18.593Z,2.63
2023-05-17T12:36:45.880Z,3.33
2023-05-17T12:39:14.467Z,2.92
2023-05-17T12:41:42.886Z,2.75
2023-05-17T12:44:15.125Z,3.35
2023-05-17T12:46:43.733Z,2.47
2023-05-17T12:49:14.578Z,3.15
2023-05-17T12:51:46.693Z,3.20
2023-05-17T12:54:24.133Z,3.03
2023-05-17T12:56:51.510Z,3.10
2023-05-17T12:59:25.493Z,3.20
2023-05-17T13:01:56.513Z,3.50
2023-05-17T13:04:34.452Z,3.13
2023-05-17T13:07:04.737Z,3.22
2023-05-17T13:09:33.698Z,2.83
2023-05-17T13:12:04.833Z,3.25
2023-05-17T13:14:47.623Z,2.97
2023-05-17T13:17:23.826Z,3.03
2023-05-17T13:19:51.222Z,2.75
2023-05-17T13:22:18.324Z,3.10
2023-05-17T13:24:45.452Z,2.88
2023-05-17T13:27:13.159Z,3.08
2023-05-17T13:29:42.838Z,3.35
2023-05-17T13:32:12.431Z,2.92
2023-05-17T13:34:40.893Z,2.90
2023-05-17T13:37:11.641Z,3.00
2023-05-17T13:39:40.462Z,3.10
2023-05-17T13:42:07.347Z,2.75
2023-05-17T13:44:34.272Z,2.97
2023-05-17T13:47:01.287Z,3.42
2023-05-17T13:49:28.624Z,4.03
2023-05-17T13:51:56.541Z,3.10
2023-05-17T13:54:23.428Z,3.22
2023-05-17T13:56:50.783Z,3.53
2023-05-17T13:59:17.603Z,3.42
2023-05-17T14:01:45.096Z,3.15
2023-05-17T14:04:12.203Z,2.90
2023-05-17T14:06:39.278Z,3.42
2023-05-17T14:09:06.392Z,2.72
2023-05-17T14:11:34.214Z,3.30
2023-05-17T14:14:01.476Z,2.80
2023-05-17T14:16:28.393Z,2.55
2023-05-17T14:18:55.688Z,3.10
2023-05-17T14:21:22.758Z,3.13
2023-05-17T14:23:49.603Z,3.17
2023-05-17T14:26:16.479Z,3.30
2023-05-17T14:28:43.336Z,2.70
2023-05-17T14:31:10.673Z,2.80
2023-05-17T14:33:37.779Z,2.78
2023-05-17T14:36:05.150Z,3.00
2023-05-17T14:38:32.398Z,3.10
2023-05-17T14:41:02.415Z,2.97
2023-05-17T14:43:29.357Z,2.97
2023-05-17T14:45:56.233Z,2.83
2023-05-17T14:48:23.444Z,2.95
2023-05-17T14:50:51.455Z,3.38
2023-05-17T14:53:18.341Z,2.80
2023-05-17T14:55:45.184Z,3.08
2023-05-17T14:58:13.615Z,3.10
2023-05-17T15:00:41.920Z,2.72
2023-05-17T15:03:09.241Z,3.53
2023-05-17T15:05:37.792Z,3.13
2023-05-17T15:08:05.024Z,2.85
2023-05-17T15:10:31.971Z,2.85
2023-05-17T15:12:58.814Z,3.22
2023-05-17T15:15:25.955Z,3.22
2023-05-17T15:17:52.996Z,3.20
2023-05-17T15:20:20.482Z,3.08
2023-05-17T15:22:48.387Z,3.10
2023-05-17T15:25:16.070Z,3.08
2023-05-17T15:27:43.272Z,3.13
2023-05-17T15:30:13.289Z,3.40
2023-05-17T15:32:40.933Z,3.20
2023-05-17T15:35:08.356Z,2.75
2023-05-17T15:37:35.213Z,2.90
2023-05-17T15:40:10.820Z,2.90
2023-05-17T15:42:37.709Z,2.95
2023-05-17T15:45:05.696Z,2.97
2023-05-17T15:50:03.936Z,2.65
2023-05-17T15:52:30.846Z,2.95
2023-05-17T15:54:57.873Z,2.50
2023-05-17T15:57:24.754Z,2.85
2023-05-17T15:59:51.930Z,3.03
2023-05-17T16:02:19.442Z,3.30
2023-05-17T16:04:46.376Z,2.95
2023-05-17T16:07:13.196Z,2.90
2023-05-17T16:09:40.001Z,2.90
2023-05-17T16:12:07.675Z,2.63
2023-05-17T16:14:34.784Z,2.95
2023-05-17T16:17:03.365Z,2.88
2023-05-17T16:19:33.995Z,2.95
2023-05-17T16:22:01.333Z,3.05
2023-05-17T16:24:28.356Z,2.95
2023-05-17T16:26:55.196Z,2.90
2023-05-17T16:29:22.138Z,3.08
2023-05-17T16:31:49.322Z,3.35
2023-05-17T16:34:16.557Z,3.05
2023-05-17T16:36:47.273Z,2.97
2023-05-17T16:39:14.144Z,2.72
2023-05-17T16:41:41.112Z,2.95
2023-05-17T16:44:08.220Z,2.97
2023-05-17T16:46:37.597Z,2.95
2023-05-17T16:49:04.774Z,2.75
2023-05-17T16:51:31.828Z,2.88
2023-05-17T16:53:58.686Z,2.85
2023-05-17T16:56:25.573Z,3.00
2023-05-17T16:58:52.380Z,2.90
2023-05-17T17:01:19.347Z,2.70
2023-05-17T17:03:46.303Z,3.08
2023-05-17T17:06:13.257Z,2.80
2023-05-17T17:08:40.164Z,2.85
2023-05-17T17:11:07.005Z,2.85
2023-05-17T17:13:34.062Z,3.03
2023-05-17T17:16:01.269Z,3.28
2023-05-17T17:18:29.044Z,2.50
2023-05-17T17:20:57.206Z,2.83
2023-05-17T17:23:24.085Z,2.85
2023-05-17T17:25:51.032Z,2.50
2023-05-17T17:28:17.885Z,3.08
2023-05-17T17:30:44.697Z,3.17
2023-05-17T17:33:11.548Z,3.10
2023-05-17T17:35:38.778Z,2.78
2023-05-17T17:38:05.779Z,2.80
2023-05-17T17:40:32.857Z,3.05
2023-05-17T17:42:59.835Z,2.75
2023-05-17T17:45:26.668Z,2.83
2023-05-17T17:47:53.678Z,3.00
2023-05-17T17:50:20.779Z,2.53
2023-05-17T17:52:48.036Z,2.88
2023-05-17T17:55:15.358Z,2.78
2023-05-17T17:57:42.388Z,2.55
2023-05-17T18:00:12.032Z,3.22
2023-05-17T18:02:39.731Z,2.70
2023-05-17T18:05:07.145Z,3.00
2023-05-17T18:07:34.092Z,2.78
2023-05-17T18:10:01.924Z,3.03
2023-05-17T18:12:29.442Z,2.90
2023-05-17T18:14:56.280Z,2.83
2023-05-17T18:17:23.251Z,2.70
2023-05-17T18:19:50.395Z,2.70
2023-05-17T18:22:17.403Z,2.85
2023-05-17T18:24:47.613Z,2.72
2023-05-17T18:27:14.969Z,2.78
2023-05-17T18:29:42.561Z,2.72
2023-05-17T18:32:10.051Z,2.72
2023-05-17T18:34:37.693Z,2.90
2023-05-17T18:37:04.957Z,2.40
2023-05-17T18:39:32.436Z,3.05
2023-05-17T18:41:59.416Z,2.83
2023-05-17T18:44:26.350Z,2.58
2023-05-17T18:46:54.075Z,2.85
2023-05-17T18:49:21.381Z,2.75
2023-05-17T18:51:48.351Z,2.75
2023-05-17T18:54:15.195Z,2.60
2023-05-17T18:56:42.021Z,2.78
2023-05-17T18:59:09.008Z,2.47
2023-05-17T19:01:36.754Z,2.40
2023-05-17T19:04:03.753Z,3.35
2023-05-17T19:06:31.770Z,2.75
2023-05-17T19:08:59.037Z,2.72
2023-05-17T19:11:28.464Z,2.85
2023-05-17T19:13:55.836Z,2.67
2023-05-17T19:16:22.754Z,2.60
2023-05-17T19:18:50.203Z,2.63
2023-05-17T19:21:17.448Z,2.78
2023-05-17T19:23:44.634Z,2.40
2023-05-17T19:26:11.706Z,2.88
2023-05-17T19:28:39.889Z,2.88
2023-05-17T19:31:08.251Z,2.88
2023-05-17T19:33:37.569Z,3.00
2023-05-17T19:36:04.723Z,2.88
2023-05-17T19:38:33.202Z,2.80
2023-05-17T19:41:01.481Z,3.10
2023-05-17T19:43:28.701Z,3.13
2023-05-17T19:45:55.968Z,2.85
2023-05-17T19:48:24.270Z,3.20
2023-05-17T19:50:51.526Z,3.58
2023-05-17T19:53:18.430Z,2.92
2023-05-17T19:55:45.524Z,3.20
2023-05-17T19:58:12.345Z,3.30
2023-05-17T20:00:39.320Z,3.28
2023-05-17T20:03:06.460Z,3.55
2023-05-17T20:05:33.597Z,3.08
2023-05-17T20:08:02.551Z,3.08
2023-05-17T20:10:32.914Z,2.97
2023-05-17T20:12:59.826Z,3.28
2023-05-17T20:15:26.760Z,2.90
2023-05-17T20:17:53.687Z,3.17
2023-05-17T20:20:20.609Z,2.90
2023-05-17T20:22:48.227Z,3.08
2023-05-17T20:25:15.114Z,3.05
2023-05-17T20:27:41.959Z,3.33
2023-05-17T20:30:09.511Z,2.80
2023-05-17T20:32:36.337Z,3.05
2023-05-17T20:35:03.297Z,2.88
2023-05-17T20:37:30.302Z,3.00
2023-05-17T20:39:59.870Z,2.67
2023-05-17T20:42:28.125Z,2.95
2023-05-17T20:44:55.478Z,2.85
2023-05-17T20:47:22.484Z,3.20
2023-05-17T20:49:50.399Z,3.10
2023-05-17T20:52:27.627Z,3.00
2023-05-17T20:55:05.670Z,3.13
2023-05-17T20:57:32.452Z,3.58
2023-05-17T20:59:59.863Z,3.05
2023-05-17T21:02:26.769Z,3.20
2023-05-17T21:04:54.586Z,3.00
2023-05-17T21:07:22.585Z,2.95
2023-05-17T21:09:49.455Z,3.25
2023-05-17T21:12:16.375Z,3.60
2023-05-17T21:14:43.202Z,2.88
2023-05-17T21:17:10.428Z,3.28
2023-05-17T21:19:37.282Z,3.03
2023-05-17T21:22:04.447Z,3.33
2023-05-17T21:24:31.325Z,2.97
2023-05-17T21:26:58.448Z,3.38
2023-05-17T21:29:25.409Z,2.97
2023-05-17T21:31:52.383Z,2.78
2023-05-17T21:34:19.414Z,3.20
2023-05-17T21:36:46.340Z,3.58
2023-05-17T21:39:13.266Z,2.63
2023-05-17T21:41:40.092Z,3.17
2023-05-17T21:44:06.934Z,3.13
2023-05-17T21:46:33.771Z,2.80
2023-05-17T21:49:00.603Z,2.67
2023-05-17T21:51:27.380Z,2.97
2023-05-17T21:53:54.420Z,3.42
2023-05-17T21:56:21.692Z,3.30
2023-05-17T21:58:48.523Z,2.95
2023-05-17T22:01:17.244Z,3.00
2023-05-17T22:03:44.227Z,2.95
2023-05-17T22:06:11.152Z,3.25
2023-05-17T22:08:37.961Z,3.15
2023-05-17T22:11:05.673Z,3.13
2023-05-17T22:13:32.662Z,3.17
2023-05-17T22:15:59.639Z,3.10
2023-05-17T22:18:31.890Z,3.13
2023-05-17T22:20:59.111Z,2.75
2023-05-17T22:23:26.393Z,3.20
2023-05-17T22:25:53.352Z,2.95
2023-05-17T22:28:20.153Z,3.20
2023-05-17T22:30:47.054Z,3.13
2023-05-17T22:33:14.503Z,2.97
2023-05-17T22:35:41.405Z,2.80
2023-05-17T22:38:08.251Z,3.38
2023-05-17T22:40:35.102Z,2.70
2023-05-17T22:43:01.892Z,2.80
2023-05-17T22:45:32.823Z,3.10
2023-05-17T22:48:02.795Z,3.10
2023-05-17T22:50:34.542Z,2.83
2023-05-17T22:53:01.473Z,3.00
2023-05-17T22:55:28.663Z,3.20
2023-05-17T22:57:56.488Z,2.97
2023-05-17T23:00:25.385Z,2.80
2023-05-17T23:02:52.389Z,2.83
2023-05-17T23:05:19.251Z,3.00
2023-05-17T23:07:47.396Z,2.95
2023-05-17T23:10:15.421Z,2.88
2023-05-17T23:12:42.353Z,2.90
2023-05-17T23:15:10.511Z,2.78
2023-05-17T23:17:38.889Z,3.00
2023-05-17T23:20:13.007Z,2.80
2023-05-17T23:22:40.335Z,2.92
2023-05-17T23:25:07.774Z,2.95
2023-05-17T23:27:35.853Z,2.70
2023-05-17T23:30:04.485Z,2.83
2023-05-17T23:32:34.932Z,3.00
2023-05-17T23:35:05.101Z,2.85
2023-05-17T23:37:33.687Z,2.30
2023-05-17T23:40:01.033Z,2.55
2023-05-17T23:42:29.344Z,2.65
2023-05-17T23:44:56.217Z,3.00
2023-05-17T23:47:23.206Z,3.10
2023-05-17T23:49:50.329Z,2.83
2023-05-17T23:52:18.866Z,3.15
2023-05-17T23:54:47.127Z,3.33
2023-05-17T23:57:14.170Z,2.83
2023-05-17T23:59:41.732Z,3.10
